• Join FlightAware (Why Join?)
  • Login
  • US Flag 
10:58AM EDT


 

Airport Tracker/Info


-or-


 

Live Flight TrackerFlight Track Log ✈ BER8750 ✈ 25-Aug-2013 ✈ EDDL / DUS - LFMN / NCE

Flight Track Log - Related Links

Times and Time Zones

All times are in EDT time to prevent confusion due to time zone crossing. See the BER8750 flight status page for this flight to view local times or setup timezone preferences in your user account.

Time Position Orientation Groundspeed Altitude Reporting Facility
EDT Latitude Longitude Course Direction KTS MPH feet Rate Location/Type
08:21AM 51.2950 6.7850 53° Northeast 162 186 500  Level FlightAware
08:21AM 51.3080 6.8100 50° Northeast 167 192 1,500 2,520 Climbing FlightAware
08:21AM 51.3180 6.8320 54° Northeast 167 192 2,500 2,760 Climbing FlightAware
08:21AM 51.3220 6.8420 57° Northeast 165 190 2,900 1,980 Climbing FlightAware
08:22AM 51.3380 6.8760 53° Northeast 186 214 3,900 1,620 Climbing FlightAware
08:22AM 51.3440 6.8880 51° Northeast 203 234 4,100 1,080 Climbing FlightAware
08:22AM 51.3530 6.9000 40° Northeast 222 255 4,300 900 Climbing FlightAware
08:22AM 51.3590 6.9060 32° Northeast 236 272 4,400 1,200 Climbing FlightAware
08:23AM 51.3740 6.9110 12° North 257 296 4,700 1,680 Climbing FlightAware
08:23AM 51.3890 6.9150 North 266 306 5,100 2,220 Climbing FlightAware
08:23AM 51.4140 6.9210 North 276 318 5,900 2,640 Climbing FlightAware
08:24AM 51.4340 6.9270 11° North 278 320 6,700 3,120 Climbing FlightAware
08:24AM 51.4440 6.9280 North 282 325 7,100 3,240 Climbing FlightAware
08:24AM 51.4770 6.9020 334° Northwest 291 335 8,700 3,240 Climbing FlightAware
08:24AM 51.4820 6.8920 309° West 293 337 9,000 3,000 Climbing FlightAware
08:24AM 51.4830 6.8880 292° West 294 338 9,200 2,760 Climbing FlightAware
08:24AM 51.4880 6.8630 288° West 296 341 9,700 1,920 Climbing FlightAware
08:25AM 51.4980 6.7690 280° West 339 390 10,800 1,800 Climbing FlightAware
08:26AM 51.5070 6.6790 279° West 360 414 12,000 2,400 Climbing FlightAware
08:26AM 51.5170 6.5850 280° West 374 430 13,600 2,760 Climbing FlightAware
08:27AM 51.5090 6.5220 258° West 375 432 14,800 3,120 Climbing FlightAware
08:27AM 51.4970 6.4980 231° Southwest 374 430 15,400 3,000 Climbing FlightAware
08:27AM 51.4830 6.4810 217° Southwest 369 425 15,800 2,640 Climbing FlightAware
08:28AM 51.4210 6.4360 204° Southwest 381 438 17,600 2,640 Climbing FlightAware
08:28AM 51.3650 6.3880 208° Southwest 385 443 19,100 2,640 Climbing FlightAware
08:29AM 51.3170 6.3450 209° Southwest 390 449 20,500 2,700 Climbing FlightAware
08:29AM 51.2520 6.2890 208° Southwest 402 463 22,300 2,460 Climbing FlightAware
08:30AM 51.1950 6.2410 208° Southwest 401 461 23,600 2,220 Climbing FlightAware
08:31AM 51.1360 6.1910 208° Southwest 416 479 24,900 2,220 Climbing FlightAware
08:31AM 51.0750 6.1390 208° Southwest 417 480 26,200 2,040 Climbing FlightAware
08:32AM 51.0140 6.0870 208° Southwest 424 488 27,300 1,800 Climbing FlightAware
08:32AM 50.9630 6.0360 212° Southwest 438 504 28,200 1,800 Climbing FlightAware
08:33AM 50.9100 5.9880 210° Southwest 441 507 29,100 1,680 Climbing FlightAware
08:33AM 50.8400 5.9300 208° Southwest 439 505 30,200 1,680 Climbing FlightAware
08:34AM 50.7710 5.8790 205° Southwest 432 497 31,200 1,920 Climbing FlightAware
08:34AM 50.7320 5.8780 181° South 418 481 32,000 2,160 Climbing FlightAware
08:35AM 50.6630 5.9090 164° South 408 470 33,400 2,100 Climbing FlightAware
08:36AM 50.5920 5.9450 162° South 403 464 34,700 1,680 Climbing FlightAware
08:36AM 50.5310 5.9750 163° South 406 467 35,400 840 Climbing FlightAware
08:37AM 50.4670 6.0070 162° South 421 484 35,700 480 Climbing FlightAware
08:37AM 50.4010 6.0390 163° South 442 509 36,000 600 Climbing FlightAware
08:38AM 50.3350 6.0720 162° South 438 504 36,400 840 Climbing FlightAware
08:39AM 50.2600 6.1080 163° South 435 501 37,000 900 Climbing FlightAware
08:39AM 50.1990 6.1380 163° South 437 503 37,500 900 Climbing FlightAware
08:40AM 50.1250 6.1750 162° South 439 505 38,100 1,020 Climbing FlightAware
08:40AM 50.0590 6.2060 163° South 437 503 38,700 780 Climbing FlightAware
08:41AM 49.9940 6.2370 163° South 436 502 39,000 240 Climbing FlightAware
08:41AM 49.9180 6.2740 163° South 436 502 39,000  Level FlightAware
08:42AM 49.8480 6.3080 163° South 443 510 39,000  Level FlightAware
08:43AM 49.7810 6.3400 163° South 443 510 39,000  Level FlightAware
08:43AM 49.7130 6.3730 163° South 442 509 39,000  Level FlightAware
08:44AM 49.6410 6.4080 163° South 444 511 39,000  Level FlightAware
08:44AM 49.5720 6.4410 163° South 444 511 39,000  Level FlightAware
08:45AM 49.4970 6.4760 163° South 445 512 39,000  Level FlightAware
08:46AM 49.4150 6.5150 163° South 446 513 39,000  Level FlightAware
08:46AM 49.3420 6.5500 163° South 447 514 39,000  Level FlightAware
08:47AM 49.2790 6.5780 164° South 448 516 39,000  Level FlightAware
08:47AM 49.2090 6.6120 162° South 448 516 39,000  Level FlightAware
08:48AM 49.1460 6.6420 163° South 449 517 39,000  Level FlightAware
08:49AM 49.0740 6.6750 163° South 448 516 39,000  Level FlightAware
08:49AM 49.0110 6.7020 164° South 449 517 39,000  Level FlightAware
08:50AM 48.9400 6.7140 174° South 449 517 39,000  Level FlightAware
08:50AM 48.8640 6.7120 181° South 449 517 39,000  Level FlightAware
08:51AM 48.7820 6.7080 182° South 449 517 39,000  Level FlightAware
08:52AM 48.7140 6.7050 182° South 448 516 39,000  Level FlightAware
08:52AM 48.6470 6.7030 181° South 448 516 39,000  Level FlightAware
08:53AM 48.5770 6.7000 182° South 449 517 39,000  Level FlightAware
08:53AM 48.4920 6.6970 181° South 449 517 39,000  Level FlightAware
08:54AM 48.4280 6.6940 182° South 448 516 39,000  Level FlightAware
08:54AM 48.3440 6.6910 181° South 448 516 39,000  Level FlightAware
08:55AM 48.2810 6.6890 181° South 447 514 39,000  Level FlightAware
08:56AM 48.2130 6.6860 182° South 447 514 39,000  Level FlightAware
08:56AM 48.1390 6.6830 182° South 438 504 39,000  Level FlightAware
08:57AM 48.0650 6.6810 181° South 438 504 39,000  Level FlightAware
08:57AM 47.9960 6.6780 182° South 437 503 39,000  Level FlightAware
08:58AM 47.9430 6.6760 181° South 437 503 39,000  Level FlightAware
08:58AM 47.8590 6.6730 181° South 438 504 39,000  Level FlightAware
08:59AM 47.7870 6.6700 182° South 447 514 39,000  Level FlightAware
09:00AM 47.7140 6.6680 181° South 449 517 39,000  Level FlightAware
09:00AM 47.6300 6.6640 182° South 451 519 39,000  Level FlightAware
09:01AM 47.5550 6.6690 177° South 452 520 39,000  Level FlightAware
09:02AM 47.4470 6.6830 175° South 455 524 39,000  Level FlightAware
09:02AM 47.3720 6.6920 175° South 456 525 39,000  Level FlightAware
09:03AM 47.2970 6.7010 175° South 456 525 39,000  Level FlightAware
09:03AM 47.2290 6.7090 175° South 456 525 39,000  Level FlightAware
09:04AM 47.1590 6.7180 175° South 455 524 39,000  Level FlightAware
09:05AM 47.0820 6.7270 175° South 454 522 39,000  Level FlightAware
09:05AM 47.0040 6.7360 176° South 453 521 39,000  Level FlightAware
09:06AM 46.9340 6.7450 175° South 451 519 39,000  Level FlightAware
09:06AM 46.8790 6.7520 175° South 451 519 39,000  Level FlightAware
09:07AM 46.7950 6.7620 175° South 450 518 39,000  Level FlightAware
09:07AM 46.7280 6.7700 175° South 450 518 39,000  Level FlightAware
09:08AM 46.6460 6.7800 175° South 450 518 39,000  Level FlightAware
09:09AM 46.5740 6.7880 176° South 449 517 39,000  Level FlightAware
09:09AM 46.4980 6.7970 175° South 449 517 39,000  Level FlightAware
09:10AM 46.4330 6.8050 175° South 448 516 39,000  Level FlightAware
09:10AM 46.3590 6.8130 176° South 447 514 39,000  Level FlightAware
09:11AM 46.2830 6.8220 175° South 447 514 39,000  Level FlightAware
09:12AM 46.2140 6.8300 175° South 447 514 39,000  Level FlightAware
09:12AM 46.1480 6.8380 175° South 449 517 39,000  Level FlightAware
09:13AM 46.0660 6.8480 175° South 449 517 39,000  Level FlightAware
09:13AM 45.9950 6.8560 176° South 449 517 39,000  Level FlightAware
09:14AM 45.9210 6.8650 175° South 450 518 39,000  Level FlightAware
09:14AM 45.8570 6.8720 176° South 451 519 39,000  Level FlightAware
09:15AM 45.7800 6.8810 175° South 452 520 39,000  Level FlightAware
09:16AM 45.7010 6.8900 175° South 453 521 39,000 -600 Level FlightAware
09:16AM 45.6240 6.8990 175° South 454 522 38,300 -1,080 Descending FlightAware
09:17AM 45.5560 6.9070 175° South 454 522 37,800 -900 Descending FlightAware
09:17AM 45.4820 6.9150 176° South 459 528 37,300 -960 Descending FlightAware
09:18AM 45.4030 6.9240 175° South 464 534 36,700 -960 Descending FlightAware
09:19AM 45.3290 6.9330 175° South 453 521 36,200 -1,020 Descending FlightAware
09:19AM 45.2600 6.9410 175° South 440 506 35,600 -1,500 Descending FlightAware
09:20AM 45.1890 6.9510 174° South 436 502 34,500 -2,220 Descending FlightAware
09:20AM 45.1150 6.9630 173° South 436 502 33,000 -2,340 Descending FlightAware
09:21AM 45.0440 6.9740 174° South 432 497 31,700 -2,220 Descending FlightAware
09:21AM 44.9810 6.9840 174° South 427 491 30,500 -2,220 Descending FlightAware
09:22AM 44.9100 6.9960 173° South 418 481 29,200 -1,380 Descending FlightAware
09:23AM 44.8490 7.0050 174° South 399 459 29,000 -180 Descending FlightAware
09:23AM 44.7850 7.0160 173° South 397 457 29,000 -840 Level FlightAware
09:24AM 44.7190 7.0320 170° South 396 456 28,000 -1,860 Descending FlightAware
09:24AM 44.6550 7.0470 171° South 391 450 26,800 -2,040 Descending FlightAware
09:25AM 44.6000 7.0600 170° South 387 445 25,700 -1,980 Descending FlightAware
09:26AM 44.5360 7.0750 171° South 382 440 24,600 -1,980 Descending FlightAware
09:26AM 44.4740 7.0900 170° South 376 433 23,400 -1,920 Descending FlightAware
09:27AM 44.4130 7.1040 171° South 370 426 22,300 -1,740 Descending FlightAware
09:27AM 44.3510 7.1190 170° South 363 418 21,300 -1,740 Descending FlightAware
09:28AM 44.3010 7.1310 170° South 356 410 20,400 -1,620 Descending FlightAware
09:28AM 44.2440 7.1440 171° South 349 402 19,500 -1,680 Descending FlightAware
09:29AM 44.1820 7.1580 171° South 342 394 18,400 -1,800 Descending FlightAware
09:30AM 44.1340 7.1850 158° South 347 399 17,400 -1,860 Descending FlightAware
09:30AM 44.0800 7.2190 156° South 344 396 16,300 -1,680 Descending FlightAware
09:31AM 44.0270 7.2500 157° South 338 389 15,400 -1,500 Descending FlightAware
09:31AM 43.9810 7.2780 156° South 329 379 14,600 -1,260 Descending FlightAware
09:32AM 43.9320 7.3060 158° South 321 369 14,000 -720 Descending FlightAware
09:32AM 43.9110 7.3170 159° South 320 368 14,000 -1,020 Level FlightAware
09:33AM 43.8610 7.3220 176° South 310 357 13,200 -1,500 Descending FlightAware
09:33AM 43.8120 7.3240 178° South 306 352 12,300 -1,680 Descending FlightAware
09:34AM 43.7600 7.3280 177° South 306 352 11,200 -1,200 Descending FlightAware
09:35AM 43.7170 7.3310 177° South 300 345 11,000 -180 Descending FlightAware
09:35AM 43.6620 7.3350 177° South 297 342 11,000 -720 Level FlightAware
09:36AM 43.6180 7.3380 177° South 298 343 10,200 -1,740 Descending FlightAware
09:36AM 43.5860 7.3410 176° South 293 337 9,400 -1,920 Descending FlightAware
09:36AM 43.5600 7.3430 177° South 291 335 8,800 -1,860 Descending FlightAware
09:37AM 43.5340 7.3450 177° South 288 331 8,200 -2,100 Descending FlightAware
09:37AM 43.5050 7.3470 177° South 290 334 7,400 -2,160 Descending FlightAware
09:37AM 43.4810 7.3470 180° South 291 335 6,800 -1,920 Descending FlightAware
09:38AM 43.4490 7.3470 180° South 283 326 6,100 -1,680 Descending FlightAware
09:38AM 43.4180 7.3470 180° South 279 321 5,500 -1,320 Descending FlightAware
09:38AM 43.4030 7.3430 191° South 279 321 5,300 -1,020 Descending FlightAware
09:39AM 43.3910 7.3340 209° Southwest 271 312 5,100 -840 Descending FlightAware
09:39AM 43.3830 7.3200 232° Southwest 259 298 5,000 -780 Descending FlightAware
09:39AM 43.3810 7.3130 249° West 254 292 4,900 -1,200 Descending FlightAware
09:39AM 43.3790 7.2890 263° West 241 277 4,600 -840 Descending FlightAware
09:39AM 43.3790 7.2610 270° West 229 264 4,400 -780 Descending FlightAware
09:40AM 43.3800 7.2310 273° West 214 246 4,100 -720 Descending FlightAware
09:40AM 43.3810 7.2250 283° West 210 242 4,100 -600 Level FlightAware
09:40AM 43.3840 7.2190 305° West 205 236 4,000 -900 Descending FlightAware
09:40AM 43.3900 7.2080 307° West 197 227 3,900 -960 Descending FlightAware
09:40AM 43.3960 7.1920 297° West 192 221 3,600 -1,080 Descending FlightAware
09:41AM 43.4020 7.1700 291° West 187 215 3,300 -960 Descending FlightAware
09:41AM 43.4060 7.1660 324° Northwest 188 216 3,200 -420 Descending FlightAware
09:41AM 43.4140 7.1630 345° North 193 222 3,200  Level FlightAware
09:41AM 43.4310 7.1620 358° North 192 221 3,200  Level FlightAware
09:42AM 43.4500 7.1620 360° North 192 221 3,200  Level FlightAware
09:42AM 43.4660 7.1610 357° North 182 209 3,200  Level FlightAware
09:42AM 43.4840 7.1610 360° North 176 203 3,200  Level FlightAware
09:43AM 43.5000 7.1600 357° North 172 198 3,200  Level FlightAware
09:43AM 43.5120 7.1600 360° North 174 200 3,200 -360 Level FlightAware
09:43AM 43.5280 7.1590 357° North 172 198 3,000 -660 Descending FlightAware
09:44AM 43.5470 7.1570 356° North 164 189 2,700 -780 Descending FlightAware
09:44AM 43.5580 7.1550 352° North 161 185 2,500 -900 Descending FlightAware
09:44AM 43.5730 7.1530 354° North 150 173 2,200 -840 Descending FlightAware
09:44AM 43.5800 7.1530 360° North 145 167 2,100 -1,080 Descending FlightAware
09:45AM 43.5980 7.1500 353° North 153 176 1,600 -1,140 Descending FlightAware
09:45AM 43.6120 7.1510 North 147 169 1,100 -900 Descending FlightAware
09:46AM 43.6220 7.1610 36° Northeast 142 163 1,000 -600 Descending FlightAware
09:46AM 43.6310 7.1750 48° Northeast 138 159 800 -720 Descending FlightAware
09:46AM 43.6420 7.1900 45° Northeast 137 158 500 -720 Descending FlightAware
09:47AM 43.6540 7.2070 46° Northeast 137 158 200 -660 Descending FlightAware